Time;durP1;ratioP1;P1;durP2;ratioP2;P2;SDS_P1;SDS_P2;PMS_P1;PMS_P2;Temp;Humidity;BMP_temperature;BMP_pressure;BME280_temperature;BME280_humidity;BME280_pressure;Samples;Min_cycle;Max_cycle;Signal;HPM_P1;HPM_P2
2023/01/30 00:00:21;;;;;;;11.73;10.73;;;;;;;2.30;100.00;100318.94;4994139;28;20173;-70
2023/01/30 00:02:46;;;;;;;4.53;4.13;;;;;;;2.33;100.00;100314.94;4992783;28;20174;-71
2023/01/30 00:05:12;;;;;;;10.60;9.57;;;;;;;2.29;100.00;100281.47;4993949;28;20215;-72
2023/01/30 00:07:37;;;;;;;9.27;8.40;;;;;;;2.30;100.00;100283.09;4993913;28;20177;-72
2023/01/30 00:10:02;;;;;;;11.60;10.57;;;;;;;2.30;100.00;100267.72;4993700;28;20177;-72
2023/01/30 00:12:28;;;;;;;8.73;7.87;;;;;;;2.30;100.00;100232.69;4993698;28;20255;-72
2023/01/30 00:14:53;;;;;;;10.30;9.27;;;;;;;2.31;100.00;100210.06;4993574;28;20300;-71
2023/01/30 00:17:18;;;;;;;9.90;8.87;;;;;;;2.30;100.00;100197.66;4993655;28;20200;-72
2023/01/30 00:19:43;;;;;;;10.13;9.23;;;;;;;2.31;100.00;100196.56;4993643;28;20542;-71
2023/01/30 00:22:09;;;;;;;15.60;14.00;;;;;;;2.33;100.00;100207.13;4993401;28;20267;-71
2023/01/30 00:24:34;;;;;;;13.90;8.87;;;;;;;2.34;100.00;100200.66;4993386;28;20584;-75
2023/01/30 00:26:59;;;;;;;9.57;8.63;;;;;;;2.35;100.00;100210.38;4993569;28;20201;-70
2023/01/30 00:29:25;;;;;;;10.37;8.23;;;;;;;2.36;100.00;100215.50;4992207;28;20173;-71
2023/01/30 00:31:50;;;;;;;7.83;7.20;;;;;;;2.38;100.00;100229.50;4993272;28;20252;-73
2023/01/30 00:34:15;;;;;;;29.60;10.20;;;;;;;2.42;100.00;100237.06;4993392;28;20177;-71
2023/01/30 00:36:41;;;;;;;14.20;11.57;;;;;;;2.41;100.00;100241.66;4993344;28;20664;-72
2023/01/30 00:39:06;;;;;;;16.13;12.03;;;;;;;2.44;100.00;100235.72;4993241;28;20177;-72
2023/01/30 00:47:05;;;;;;;10.33;7.77;;;;;;;2.49;100.00;100232.25;4993246;28;20668;-71
2023/01/30 00:49:31;;;;;;;5.90;5.10;;;;;;;2.52;100.00;100219.06;4993604;28;20180;-71
2023/01/30 00:51:57;;;;;;;13.73;12.33;;;;;;;2.51;100.00;100195.06;4992974;28;20550;-71
2023/01/30 00:54:22;;;;;;;9.97;8.83;;;;;;;2.48;100.00;100174.03;4993034;28;20249;-71
2023/01/30 00:56:47;;;;;;;17.10;15.53;;;;;;;2.47;100.00;100159.72;4991657;28;20181;-71
2023/01/30 00:59:13;;;;;;;8.73;7.87;;;;;;;2.51;100.00;100152.72;4992919;28;20173;-70
2023/01/30 01:01:38;;;;;;;11.43;8.87;;;;;;;2.54;100.00;100146.00;4992867;28;20181;-71
2023/01/30 01:04:05;;;;;;;22.53;15.07;;;;;;;2.56;100.00;100157.31;4992787;28;20547;-72
2023/01/30 01:06:31;;;;;;;18.20;12.00;;;;;;;2.59;100.00;100146.81;4992735;28;20189;-72
2023/01/30 01:08:56;;;;;;;12.97;11.93;;;;;;;2.61;100.00;100117.72;4992518;28;20711;-71
2023/01/30 01:11:24;;;;;;;14.97;13.50;;;;;;;2.64;100.00;100119.06;4999233;28;20553;-71
2023/01/30 01:13:54;;;;;;;16.90;13.53;;;;;;;2.68;100.00;100093.97;5012276;28;20402;-70
2023/01/30 01:16:21;;;;;;;15.13;12.53;;;;;;;2.67;100.00;100078.88;5011838;28;20176;-72
2023/01/30 01:18:47;;;;;;;17.90;14.20;;;;;;;2.69;100.00;100074.00;5012072;28;20194;-71
2023/01/30 01:21:12;;;;;;;12.63;11.30;;;;;;;2.73;100.00;100101.25;5011948;28;20177;-71
2023/01/30 01:23:38;;;;;;;17.03;13.03;;;;;;;2.72;100.00;100113.13;5012180;28;20173;-70
2023/01/30 01:26:04;;;;;;;19.93;15.77;;;;;;;2.74;100.00;100097.47;5012048;28;20181;-71
2023/01/30 01:28:29;;;;;;;18.30;9.87;;;;;;;2.74;100.00;100107.47;5011716;28;20259;-71
2023/01/30 01:30:55;;;;;;;14.17;12.47;;;;;;;2.72;100.00;100117.69;5011687;28;20670;-71
2023/01/30 01:33:20;;;;;;;19.47;14.87;;;;;;;2.74;100.00;100115.53;5012063;28;20690;-72
2023/01/30 01:35:48;;;;;;;14.47;12.30;;;;;;;2.73;100.00;100106.66;5011933;28;20538;-71
2023/01/30 01:38:13;;;;;;;14.50;11.77;;;;;;;2.75;100.00;100112.59;5011924;28;20192;-71
2023/01/30 01:43:24;;;;;;;13.60;11.30;;;;;;;2.81;100.00;100084.56;5011772;28;20219;-71
2023/01/30 01:45:56;;;;;;;14.27;11.40;;;;;;;2.85;100.00;100071.31;5011609;28;20216;-71
2023/01/30 01:48:31;;;;;;;16.53;11.77;;;;;;;2.83;100.00;100063.50;5011708;28;20173;-71
2023/01/30 01:51:01;;;;;;;11.87;9.70;;;;;;;2.84;100.00;100038.16;5011439;28;20635;-71
2023/01/30 01:53:31;;;;;;;17.67;15.77;;;;;;;2.78;100.00;100031.16;5011699;28;20176;-71
2023/01/30 01:55:59;;;;;;;9.13;8.27;;;;;;;2.75;100.00;100007.41;5010133;28;20654;-71
2023/01/30 01:58:58;;;;;;;21.17;17.03;;;;;;;2.71;100.00;99979.34;5011657;28;20547;-71
2023/01/30 02:01:24;;;;;;;12.63;9.10;;;;;;;2.73;100.00;99958.31;4988448;28;20707;-71
2023/01/30 02:03:54;;;;;;;16.43;13.33;;;;;;;2.74;100.00;99964.50;5011445;28;20192;-71
2023/01/30 02:06:21;;;;;;;14.33;12.73;;;;;;;2.73;100.00;99965.59;5011689;28;20164;-71
2023/01/30 02:08:52;;;;;;;16.17;14.07;;;;;;;2.69;100.00;99986.91;5011377;28;20252;-71
2023/01/30 02:11:35;;;;;;;22.13;17.70;;;;;;;2.66;100.00;99987.44;5011526;28;20165;-72
2023/01/30 02:14:02;;;;;;;14.10;10.10;;;;;;;2.66;100.00;99952.38;5011265;28;20168;-71
2023/01/30 02:16:27;;;;;;;18.50;14.70;;;;;;;2.67;100.00;99954.00;5011035;28;20180;-71
2023/01/30 02:18:53;;;;;;;28.00;18.43;;;;;;;2.71;100.00;99951.56;5011153;28;20169;-71
2023/01/30 02:22:00;;;;;;;14.30;12.87;;;;;;;2.76;100.00;99959.69;5010112;28;20211;-71
2023/01/30 02:24:44;;;;;;;12.90;10.83;;;;;;;2.77;100.00;99964.78;5011023;28;20667;-71
2023/01/30 02:27:20;;;;;;;19.67;14.60;;;;;;;2.80;100.00;99960.75;5011281;28;20287;-72
2023/01/30 02:30:07;;;;;;;15.27;13.23;;;;;;;2.83;100.00;99950.22;5011064;28;20159;-72
2023/01/30 02:32:48;;;;;;;17.70;13.13;;;;;;;2.89;100.00;99949.13;5011090;28;20184;-71
2023/01/30 02:35:22;;;;;;;17.30;13.20;;;;;;;2.94;100.00;99959.09;5011026;28;20533;-71
2023/01/30 02:38:09;;;;;;;15.77;14.10;;;;;;;2.99;100.00;99946.41;5010995;28;20199;-73
2023/01/30 02:40:48;;;;;;;13.77;12.47;;;;;;;3.02;100.00;99944.22;5010814;28;20650;-71
2023/01/30 02:43:32;;;;;;;15.03;13.57;;;;;;;3.10;100.00;99922.09;5011173;28;20652;-72
2023/01/30 02:46:18;;;;;;;10.80;9.80;;;;;;;3.22;100.00;99925.28;5010862;28;20636;-72
2023/01/30 02:48:55;;;;;;;11.70;10.57;;;;;;;3.21;100.00;99926.38;5010944;28;20566;-72
2023/01/30 02:51:26;;;;;;;12.47;9.03;;;;;;;3.21;100.00;99905.59;5010732;28;20215;-71
2023/01/30 02:53:53;;;;;;;14.87;11.50;;;;;;;3.21;100.00;99904.78;5010909;28;20611;-77
2023/01/30 02:56:18;;;;;;;11.00;9.50;;;;;;;3.23;100.00;99906.13;5010768;28;20581;-72
2023/01/30 02:58:50;;;;;;;14.20;11.87;;;;;;;3.25;100.00;99897.75;5010926;28;20430;-72
2023/01/30 03:01:43;;;;;;;18.10;12.43;;;;;;;3.24;100.00;99880.75;5010675;28;20165;-71
2023/01/30 03:04:31;;;;;;;16.87;10.73;;;;;;;3.24;100.00;99882.63;5010702;28;20199;-73
2023/01/30 03:07:14;;;;;;;14.07;11.93;;;;;;;3.25;100.00;99874.25;5010709;28;20508;-72
2023/01/30 03:09:49;;;;;;;12.90;11.53;;;;;;;3.21;100.00;99875.91;5010736;28;20169;-76
2023/01/30 03:12:35;;;;;;;12.30;9.77;;;;;;;3.19;100.00;99888.06;5010724;28;20171;-71
2023/01/30 03:15:11;;;;;;;12.37;9.40;;;;;;;3.27;100.00;99890.16;5010483;28;20173;-71
2023/01/30 03:17:42;;;;;;;16.90;11.53;;;;;;;3.37;100.00;99890.13;5010605;28;20204;-71
2023/01/30 03:20:09;;;;;;;13.67;12.27;;;;;;;3.37;100.00;99884.75;5010416;28;20172;-72
2023/01/30 03:22:34;;;;;;;12.87;10.27;;;;;;;3.35;100.00;99902.31;5010411;28;20192;-72
2023/01/30 03:25:00;;;;;;;15.83;12.10;;;;;;;3.32;100.00;99878.53;5010549;28;20216;-72
2023/01/30 03:27:25;;;;;;;12.80;11.53;;;;;;;3.32;100.00;99884.75;5010672;28;20258;-71
2023/01/30 03:29:50;;;;;;;15.37;11.83;;;;;;;3.39;100.00;99884.47;5009081;28;20181;-71
2023/01/30 03:32:16;;;;;;;12.73;10.20;;;;;;;3.51;100.00;99869.53;5011988;28;20268;-74
2023/01/30 03:34:41;;;;;;;17.40;14.03;;;;;;;3.59;100.00;99858.13;5014207;28;20208;-73
2023/01/30 03:37:06;;;;;;;11.30;10.17;;;;;;;3.62;100.00;99856.78;5013952;28;20173;-71
2023/01/30 03:39:32;;;;;;;13.87;12.17;;;;;;;3.63;100.00;99841.41;5012829;28;20177;-71
2023/01/30 03:41:57;;;;;;;13.33;12.17;;;;;;;3.62;100.00;99850.56;5012570;28;20184;-72
2023/01/30 03:44:22;;;;;;;15.17;10.33;;;;;;;3.61;100.00;99846.25;5013919;28;20200;-72
2023/01/30 03:46:48;;;;;;;12.30;10.03;;;;;;;3.59;100.00;99827.63;5014014;28;20632;-72
2023/01/30 03:49:13;;;;;;;13.03;10.27;;;;;;;3.53;100.00;99829.56;5013891;28;20169;-73
2023/01/30 03:51:38;;;;;;;16.00;13.40;;;;;;;3.51;100.00;99817.44;5012406;28;20187;-71
2023/01/30 03:54:04;;;;;;;18.37;16.50;;;;;;;3.48;100.00;99816.09;5013794;28;20707;-72
2023/01/30 03:56:29;;;;;;;13.30;11.90;;;;;;;3.47;100.00;99824.44;5013848;28;20379;-71
2023/01/30 03:58:55;;;;;;;12.07;9.10;;;;;;;3.48;100.00;99820.69;5013754;28;20177;-72
2023/01/30 04:01:20;;;;;;;13.03;11.87;;;;;;;3.47;100.00;99813.66;5013532;28;20272;-73
2023/01/30 04:03:45;;;;;;;8.87;7.40;;;;;;;3.49;100.00;99798.81;5014024;28;20268;-74
2023/01/30 04:06:11;;;;;;;14.17;12.77;;;;;;;3.51;100.00;99812.84;5013997;28;20216;-72
2023/01/30 04:08:36;;;;;;;10.90;10.00;;;;;;;3.52;100.00;99787.44;5013569;28;20632;-71
2023/01/30 04:11:01;;;;;;;13.90;11.23;;;;;;;3.58;100.00;99791.72;5013379;28;20628;-75
2023/01/30 04:13:27;;;;;;;10.53;9.53;;;;;;;3.60;100.00;99791.41;5013532;28;20188;-71
2023/01/30 04:15:52;;;;;;;12.67;11.43;;;;;;;3.63;100.00;99780.06;5013230;28;20176;-72
2023/01/30 04:18:17;;;;;;;7.40;6.67;;;;;;;3.64;100.00;99770.88;5013461;28;20183;-71
2023/01/30 04:20:43;;;;;;;10.30;9.33;;;;;;;3.67;100.00;99780.31;5013199;28;20242;-72
2023/01/30 04:23:08;;;;;;;7.70;7.00;;;;;;;3.67;100.00;99773.00;5013198;28;20648;-72
2023/01/30 04:25:33;;;;;;;14.37;11.60;;;;;;;3.64;100.00;99770.88;5013213;28;20235;-71
2023/01/30 04:27:59;;;;;;;10.40;9.33;;;;;;;3.64;100.00;99761.97;5013171;28;20199;-72
2023/01/30 04:30:24;;;;;;;8.73;6.40;;;;;;;3.63;100.00;99768.47;5013018;28;20675;-72
2023/01/30 04:32:49;;;;;;;12.80;11.50;;;;;;;3.60;100.00;99767.13;5013070;28;20173;-72
2023/01/30 04:35:15;;;;;;;8.37;7.57;;;;;;;3.63;100.00;99758.47;5012988;28;20176;-72
2023/01/30 04:37:40;;;;;;;8.97;8.10;;;;;;;3.64;100.00;99759.28;5013020;28;20324;-72
2023/01/30 04:40:06;;;;;;;8.77;7.90;;;;;;;3.67;100.00;99766.81;5012847;28;20651;-72
2023/01/30 04:42:31;;;;;;;7.97;7.30;;;;;;;3.68;100.00;99758.41;5012950;28;20191;-72
2023/01/30 04:44:57;;;;;;;6.37;5.43;;;;;;;3.68;100.00;99739.50;5012107;28;20208;-71
2023/01/30 04:47:22;;;;;;;6.47;5.97;;;;;;;3.71;100.00;99759.75;5013157;28;20204;-75
2023/01/30 04:49:47;;;;;;;8.90;8.10;;;;;;;3.72;100.00;99745.16;5012789;28;20181;-71
2023/01/30 04:52:13;;;;;;;5.03;4.63;;;;;;;3.74;100.00;99753.78;5012616;28;20235;-78
2023/01/30 04:54:38;;;;;;;7.20;6.60;;;;;;;3.80;100.00;99745.34;5012663;28;20574;-72
2023/01/30 04:57:03;;;;;;;7.70;7.00;;;;;;;3.83;100.00;99741.28;5012592;28;20191;-73
2023/01/30 04:59:28;;;;;;;6.57;5.97;;;;;;;3.87;100.00;99740.41;5012634;28;20184;-71
2023/01/30 05:01:54;;;;;;;7.07;6.47;;;;;;;3.88;100.00;99743.91;5011462;28;20193;-74
2023/01/30 05:04:19;;;;;;;6.97;6.33;;;;;;;3.89;100.00;99735.53;5012636;28;20204;-77
2023/01/30 05:06:44;;;;;;;5.53;4.87;;;;;;;3.88;100.00;99727.72;5012407;28;20188;-74
2023/01/30 05:09:10;;;;;;;3.80;3.30;;;;;;;3.92;100.00;99733.38;5012405;28;20226;-72
2023/01/30 05:11:36;;;;;;;7.77;7.17;;;;;;;3.88;100.00;99735.81;5010854;28;20180;-75
2023/01/30 05:14:02;;;;;;;5.80;4.63;;;;;;;3.92;100.00;99722.56;5012284;28;20263;-71
2023/01/30 05:16:28;;;;;;;7.93;7.17;;;;;;;3.94;100.00;99726.59;5012006;28;20257;-72
2023/01/30 05:18:53;;;;;;;5.60;5.17;;;;;;;3.94;100.00;99702.25;5012325;28;20191;-75
2023/01/30 05:21:22;;;;;;;8.20;7.50;;;;;;;4.00;100.00;99713.81;5011922;28;20188;-72
2023/01/30 05:23:47;;;;;;;6.63;6.03;;;;;;;4.00;100.00;99717.31;5012191;28;20188;-78
2023/01/30 05:26:13;;;;;;;9.47;6.40;;;;;;;3.98;100.00;99714.09;5012147;28;20216;-73
2023/01/30 05:28:39;;;;;;;10.47;9.67;;;;;;;4.00;100.00;99722.72;5011961;28;20235;-72
2023/01/30 05:31:11;;;;;;;6.87;6.20;;;;;;;4.02;100.00;99709.72;5012051;28;20404;-72
2023/01/30 05:33:37;;;;;;;6.60;6.00;;;;;;;4.02;100.00;99707.03;5012351;28;20185;-74
2023/01/30 05:36:03;;;;;;;8.37;7.30;;;;;;;4.04;100.00;99704.84;5011905;28;20185;-74
2023/01/30 05:38:29;;;;;;;6.53;5.93;;;;;;;4.04;100.00;99715.66;5011784;28;20243;-74
2023/01/30 05:41:02;;;;;;;8.07;6.83;;;;;;;4.04;100.00;99712.94;5011717;28;20208;-76
2023/01/30 05:43:27;;;;;;;6.27;5.67;;;;;;;4.08;100.00;99711.31;5011876;28;20179;-72
2023/01/30 05:45:54;;;;;;;8.73;7.73;;;;;;;4.12;100.00;99714.25;5011837;28;20220;-74
2023/01/30 05:48:20;;;;;;;5.60;5.17;;;;;;;4.13;100.00;99715.84;5011809;28;20179;-73
2023/01/30 05:50:46;;;;;;;7.27;6.57;;;;;;;4.14;100.00;99720.16;5011758;28;20259;-79
2023/01/30 05:53:12;;;;;;;7.17;6.00;;;;;;;4.13;100.00;99730.16;5011733;28;20692;-72
2023/01/30 05:55:38;;;;;;;6.63;5.97;;;;;;;4.13;100.00;99727.47;5011738;28;20513;-74
2023/01/30 05:58:03;;;;;;;7.00;6.40;;;;;;;4.12;100.00;99720.44;5011918;28;20200;-73
2023/01/30 06:00:28;;;;;;;6.93;6.23;;;;;;;4.13;100.00;99721.25;5011682;28;20636;-71
2023/01/30 06:02:53;;;;;;;7.70;7.10;;;;;;;4.13;100.00;99740.16;5010654;28;20196;-75
2023/01/30 06:05:19;;;;;;;8.37;7.77;;;;;;;4.12;100.00;99742.06;5011831;28;20196;-73
2023/01/30 06:07:44;;;;;;;8.50;7.70;;;;;;;4.12;100.00;99728.56;5011430;28;20206;-75
2023/01/30 06:10:10;;;;;;;6.60;5.57;;;;;;;4.13;100.00;99734.75;5011379;28;20194;-75
2023/01/30 06:12:35;;;;;;;6.57;6.00;;;;;;;4.13;100.00;99740.97;5011597;28;20169;-73
2023/01/30 06:15:00;;;;;;;5.10;4.70;;;;;;;4.10;100.00;99730.75;5011100;28;20219;-73
2023/01/30 06:17:25;;;;;;;6.27;5.67;;;;;;;4.08;100.00;99743.75;5011258;28;20172;-72
2023/01/30 06:19:51;;;;;;;8.07;7.37;;;;;;;4.05;100.00;99738.09;5011783;28;20524;-72
2023/01/30 06:22:16;;;;;;;7.20;6.13;;;;;;;4.04;100.00;99725.66;5011024;28;20188;-73
2023/01/30 06:24:41;;;;;;;5.57;5.07;;;;;;;4.03;100.00;99718.66;5011445;28;20207;-87
2023/01/30 06:27:07;;;;;;;6.67;5.53;;;;;;;4.01;100.00;99726.25;5011179;28;20181;-73
2023/01/30 06:29:32;;;;;;;5.20;4.70;;;;;;;4.00;100.00;99722.72;5011427;28;20242;-80
2023/01/30 06:31:57;;;;;;;5.40;5.00;;;;;;;4.00;100.00;99703.81;5011444;28;20573;-85
2023/01/30 06:34:22;;;;;;;5.10;4.70;;;;;;;4.01;100.00;99704.63;5011805;28;20184;-84
2023/01/30 06:36:48;;;;;;;6.70;6.00;;;;;;;4.10;100.00;99695.59;4989760;28;20297;-78
2023/01/30 06:39:13;;;;;;;6.80;6.10;;;;;;;4.18;100.00;99700.38;5011439;28;20172;-80
2023/01/30 06:41:38;;;;;;;5.27;4.73;;;;;;;4.24;100.00;99709.25;5011234;28;20168;-80
2023/01/30 06:44:04;;;;;;;8.40;5.20;;;;;;;4.31;100.00;99712.41;5010817;28;20215;-76
2023/01/30 06:46:29;;;;;;;6.23;4.57;;;;;;;4.37;100.00;99707.75;5010867;28;20169;-75
2023/01/30 06:48:54;;;;;;;4.30;3.03;;;;;;;4.42;100.00;99721.22;5010780;28;20659;-78
2023/01/30 06:51:20;;;;;;;3.80;3.13;;;;;;;4.46;100.00;99728.44;5010257;28;20208;-73
2023/01/30 06:53:45;;;;;;;3.57;2.23;;;;;;;4.50;100.00;99746.81;5010344;28;20177;-76
2023/01/30 06:56:10;;;;;;;2.90;2.13;;;;;;;4.53;100.00;99759.75;5010348;28;20239;-74
2023/01/30 06:58:36;;;;;;;2.97;2.07;;;;;;;4.46;100.00;99757.38;5010344;28;20180;-76
2023/01/30 07:01:01;;;;;;;2.63;1.43;;;;;;;4.44;100.00;99778.50;5010256;28;20424;-77
2023/01/30 07:03:26;;;;;;;1.27;1.17;;;;;;;4.40;100.00;99767.47;5010205;28;20187;-73
2023/01/30 07:05:52;;;;;;;1.73;1.63;;;;;;;4.36;100.00;99758.31;5010200;28;20224;-77
2023/01/30 07:08:17;;;;;;;2.83;2.57;;;;;;;4.34;100.00;99756.97;5013794;28;20487;-76
2023/01/30 07:10:43;;;;;;;2.23;2.03;;;;;;;4.33;100.00;99760.78;5014025;28;20620;-77
2023/01/30 07:13:08;;;;;;;3.40;2.10;;;;;;;4.39;100.00;99743.41;5014443;28;20264;-77
2023/01/30 07:15:34;;;;;;;3.93;2.30;;;;;;;4.55;100.00;99747.56;5013511;28;20275;-76
2023/01/30 07:18:00;;;;;;;2.37;2.13;;;;;;;4.60;100.00;99752.09;5014046;28;20173;-74
2023/01/30 07:20:25;;;;;;;2.63;1.20;;;;;;;4.59;100.00;99758.59;5013510;28;20212;-76
2023/01/30 07:22:52;;;;;;;9.00;1.80;;;;;;;4.53;100.00;99768.69;5014019;28;20307;-76
2023/01/30 07:25:19;;;;;;;5.00;1.40;;;;;;;4.69;100.00;99777.44;5013932;28;20235;-77
2023/01/30 07:27:55;;;;;;;15.50;2.70;;;;;;;4.66;100.00;99784.22;5013742;28;20640;-76
2023/01/30 07:30:20;;;;;;;7.13;3.07;;;;;;;4.64;100.00;99772.09;5013977;28;20187;-77
2023/01/30 07:32:51;;;;;;;5.00;1.70;;;;;;;4.66;100.00;99789.63;5013745;28;20260;-71
2023/01/30 07:35:16;;;;;;;1.87;1.33;;;;;;;4.71;100.00;99794.97;5012564;28;20187;-76
2023/01/30 07:37:44;;;;;;;13.57;2.77;;;;;;;4.69;100.00;99786.34;5013624;28;20176;-77
2023/01/30 07:40:11;;;;;;;9.17;2.17;;;;;;;4.65;100.00;99777.19;5013454;28;20251;-76
2023/01/30 07:42:36;;;;;;;5.83;2.03;;;;;;;4.65;100.00;99785.31;5014052;28;20200;-73
2023/01/30 07:45:01;;;;;;;7.10;1.30;;;;;;;4.59;100.00;99778.34;5013557;28;20347;-76
2023/01/30 07:47:26;;;;;;;14.07;2.10;;;;;;;4.53;100.00;99787.63;5013335;28;20227;-73
2023/01/30 07:49:52;;;;;;;6.60;1.57;;;;;;;4.48;100.00;99790.34;5013407;28;20542;-73
2023/01/30 07:52:17;;;;;;;2.23;1.10;;;;;;;4.44;100.00;99782.03;5013439;28;20179;-75
2023/01/30 07:54:42;;;;;;;1.17;1.10;;;;;;;4.47;100.00;99786.84;5013410;28;20252;-75
2023/01/30 07:57:07;;;;;;;5.50;1.60;;;;;;;4.51;100.00;99789.81;5012350;28;20176;-76
2023/01/30 07:59:33;;;;;;;5.27;1.07;;;;;;;4.53;100.00;99774.09;5013715;28;20179;-76
2023/01/30 08:01:58;;;;;;;3.43;1.90;;;;;;;4.58;100.00;99771.31;5013007;28;20172;-75
2023/01/30 08:04:23;;;;;;;5.00;1.87;;;;;;;4.68;100.00;99783.94;5013201;28;20208;-74
2023/01/30 08:06:49;;;;;;;2.70;1.10;;;;;;;4.63;100.00;99776.69;5013154;28;20169;-76
2023/01/30 08:09:14;;;;;;;1.53;1.37;;;;;;;4.62;100.00;99777.75;5013016;28;20165;-76
2023/01/30 08:11:39;;;;;;;5.47;2.47;;;;;;;4.57;100.00;99775.13;5012864;28;20169;-76
2023/01/30 08:14:05;;;;;;;6.13;2.40;;;;;;;4.56;100.00;99770.81;5012791;28;20203;-76
2023/01/30 08:16:31;;;;;;;7.97;1.73;;;;;;;4.73;100.00;99770.34;5012955;28;20219;-74
2023/01/30 08:18:56;;;;;;;14.00;1.80;;;;;;;4.75;100.00;99779.78;5011755;28;20168;-74
2023/01/30 08:21:22;;;;;;;6.37;1.87;;;;;;;4.74;100.00;99780.88;5012632;28;20184;-76
2023/01/30 08:23:47;;;;;;;1.17;1.13;;;;;;;4.85;100.00;99778.03;5012749;28;20180;-75
2023/01/30 08:26:12;;;;;;;5.80;3.63;;;;;;;4.85;100.00;99794.28;5012892;28;20582;-72
2023/01/30 08:28:38;;;;;;;1.87;1.23;;;;;;;4.92;100.00;99786.59;5012629;28;20173;-76
2023/01/30 08:31:08;;;;;;;5.57;2.43;;;;;;;4.91;100.00;99801.22;5012480;28;20624;-75
2023/01/30 08:33:33;;;;;;;5.67;2.00;;;;;;;4.91;100.00;99806.66;5012339;28;20569;-76
2023/01/30 08:35:59;;;;;;;1.33;0.70;;;;;;;4.96;100.00;99798.47;5012517;28;20632;-81
2023/01/30 08:38:24;;;;;;;7.57;1.20;;;;;;;4.97;100.00;99811.72;5012496;28;20180;-76
2023/01/30 08:40:49;;;;;;;5.30;1.57;;;;;;;4.99;100.00;99824.97;5012270;28;20179;-80
2023/01/30 08:43:15;;;;;;;1.17;1.13;;;;;;;4.99;100.00;99812.22;5012864;28;20528;-81
2023/01/30 08:45:40;;;;;;;9.03;1.20;;;;;;;4.98;100.00;99818.75;5012701;28;20258;-82
2023/01/30 08:48:06;;;;;;;5.90;1.70;;;;;;;4.99;100.00;99812.22;5011974;28;20655;-82
2023/01/30 08:50:32;;;;;;;1.87;1.13;;;;;;;5.03;100.00;99818.66;5012163;28;20169;-77
2023/01/30 08:53:04;;;;;;;14.03;1.30;;;;;;;5.06;100.00;99822.69;5012842;28;20248;-80
2023/01/30 08:55:29;;;;;;;4.13;1.03;;;;;;;5.05;100.00;99818.38;5012659;28;20181;-81
2023/01/30 08:57:55;;;;;;;2.70;1.47;;;;;;;5.04;100.00;99820.28;5012320;28;20238;-77
2023/01/30 09:00:21;;;;;;;4.53;1.93;;;;;;;5.11;100.00;99819.94;5012281;28;20181;-80
2023/01/30 09:02:46;;;;;;;7.23;1.53;;;;;;;5.11;100.00;99827.25;5012384;28;20183;-78
2023/01/30 09:05:11;;;;;;;2.67;1.27;;;;;;;5.12;99.92;99856.75;5012125;28;20660;-79
2023/01/30 09:07:37;;;;;;;2.63;1.20;;;;;;;5.13;100.00;99823.16;5011981;28;20177;-77
2023/01/30 09:10:03;;;;;;;8.93;2.00;;;;;;;5.11;99.32;99819.94;5012588;28;20168;-73
2023/01/30 09:12:28;;;;;;;4.37;2.03;;;;;;;5.13;97.97;99812.34;5012131;28;20200;-79
2023/01/30 09:14:54;;;;;;;2.50;1.73;;;;;;;5.20;95.91;99820.09;5012004;28;20177;-79
2023/01/30 09:17:20;;;;;;;14.63;1.27;;;;;;;5.21;96.19;99833.34;5012075;28;20648;-78
2023/01/30 09:19:45;;;;;;;4.63;1.50;;;;;;;5.22;95.34;99820.63;5011904;28;20183;-78
2023/01/30 09:22:11;;;;;;;5.40;2.00;;;;;;;5.24;95.25;99826.56;5010227;28;20180;-79
2023/01/30 09:24:36;;;;;;;3.43;1.17;;;;;;;5.23;95.04;99822.22;5011770;28;20247;-80
2023/01/30 09:27:01;;;;;;;6.80;1.57;;;;;;;5.28;94.88;99827.56;5011822;28;20311;-79
2023/01/30 09:29:28;;;;;;;11.07;2.40;;;;;;;5.26;95.18;99817.03;4991517;28;20622;-80
2023/01/30 09:31:57;;;;;;;15.23;2.63;;;;;;;5.28;94.53;99804.00;4975104;28;20187;-80
2023/01/30 09:34:27;;;;;;;7.80;2.97;;;;;;;5.30;94.47;99822.66;4982999;28;20510;-76
2023/01/30 09:36:58;;;;;;;2.53;1.73;;;;;;;5.34;94.23;99820.97;4978939;28;20180;-78
2023/01/30 09:39:23;;;;;;;4.43;2.23;;;;;;;5.33;93.29;99825.59;4977098;28;20245;-77
2023/01/30 09:42:09;;;;;;;4.87;1.17;;;;;;;5.36;93.15;99810.69;4978365;28;20177;-79
2023/01/30 09:45:02;;;;;;;8.00;2.00;;;;;;;5.40;92.11;99827.16;4972081;28;20264;-78
2023/01/30 09:47:54;;;;;;;12.10;2.17;;;;;;;5.40;91.84;99827.16;4972461;28;20264;-79
2023/01/30 09:50:33;;;;;;;8.07;2.17;;;;;;;5.44;91.25;99822.75;4972119;28;20220;-80
2023/01/30 09:53:11;;;;;;;12.43;2.27;;;;;;;5.46;91.96;99824.06;4972845;28;20641;-76
2023/01/30 09:55:40;;;;;;;5.77;1.60;;;;;;;5.49;90.02;99826.19;4972174;28;20656;-77
2023/01/30 09:58:15;;;;;;;15.80;2.07;;;;;;;5.51;89.13;99815.06;4972268;28;20633;-75
2023/01/30 10:00:45;;;;;;;7.77;2.17;;;;;;;5.53;88.37;99819.09;4972221;28;20652;-76
2023/01/30 10:03:14;;;;;;;3.60;1.60;;;;;;;5.51;88.86;99831.34;4972360;28;20174;-77
2023/01/30 10:05:48;;;;;;;9.00;2.50;;;;;;;5.50;89.72;99821.59;4972440;28;20205;-77
2023/01/30 10:08:52;;;;;;;5.43;1.93;;;;;;;5.50;90.60;99833.25;4971950;28;20178;-76
2023/01/30 10:11:39;;;;;;;2.10;0.93;;;;;;;5.49;90.64;99828.09;4965342;28;20185;-80
2023/01/30 10:14:26;;;;;;;10.60;3.27;;;;;;;5.44;90.39;99822.75;4970873;28;20634;-80
2023/01/30 10:17:19;;;;;;;9.17;1.90;;;;;;;5.48;89.84;99821.84;4972247;28;20236;-81
2023/01/30 10:19:54;;;;;;;9.57;2.70;;;;;;;5.48;89.55;99827.28;4972277;28;20217;-78
2023/01/30 10:22:31;;;;;;;3.13;2.00;;;;;;;5.48;90.02;99837.31;4971558;28;20193;-76
2023/01/30 10:25:05;;;;;;;7.30;2.77;;;;;;;5.29;91.36;99829.19;4971674;28;20264;-75
2023/01/30 10:27:32;;;;;;;6.13;1.70;;;;;;;5.24;92.21;99821.13;4971619;28;20178;-75
2023/01/30 10:30:01;;;;;;;11.97;1.17;;;;;;;5.26;92.62;99824.34;4971681;28;20181;-78
2023/01/30 10:32:56;;;;;;;8.00;1.50;;;;;;;5.30;93.30;99820.75;4971555;28;20309;-75
2023/01/30 10:35:25;;;;;;;28.53;2.37;;;;;;;5.39;92.23;99823.63;4970702;28;20318;-74
2023/01/30 10:38:19;;;;;;;25.97;3.50;;;;;;;5.46;92.04;99815.13;4971583;28;20196;-75
2023/01/30 10:41:03;;;;;;;10.40;1.97;;;;;;;5.51;91.28;99820.50;4971458;28;20179;-77
2023/01/30 10:43:37;;;;;;;3.13;2.13;;;;;;;5.55;90.10;99806.06;4971389;28;20236;-79
2023/01/30 10:46:27;;;;;;;3.83;2.00;;;;;;;5.60;89.65;99808.69;4971426;28;20213;-75
2023/01/30 10:49:14;;;;;;;3.63;2.23;;;;;;;5.65;89.04;99783.44;4991850;28;20189;-76
2023/01/30 10:52:04;;;;;;;7.17;1.80;;;;;;;5.70;88.19;99801.50;4971166;28;20182;-72
2023/01/30 10:54:48;;;;;;;17.73;2.87;;;;;;;5.69;88.30;99787.16;4971426;28;20177;-73
2023/01/30 10:57:39;;;;;;;5.43;1.70;;;;;;;5.69;87.43;99779.03;4974244;28;20209;-73
2023/01/30 11:00:11;;;;;;;14.60;2.37;;;;;;;5.63;88.43;99767.44;4971141;28;20182;-74
2023/01/30 11:03:07;;;;;;;21.13;2.43;;;;;;;5.49;89.46;99795.56;4970046;28;20582;-74
2023/01/30 11:05:51;;;;;;;7.13;2.10;;;;;;;5.27;91.69;99785.34;4971439;28;20210;-71
2023/01/30 11:08:24;;;;;;;4.73;1.30;;;;;;;4.90;95.17;99813.16;4971562;28;20269;-74
2023/01/30 11:10:51;;;;;;;8.33;2.33;;;;;;;4.91;97.84;99814.75;4971243;28;20669;-72
2023/01/30 11:13:20;;;;;;;4.40;1.90;;;;;;;5.01;98.89;99811.94;4971316;28;20194;-72
2023/01/30 11:15:49;;;;;;;5.03;0.77;;;;;;;5.11;100.00;99803.69;4971291;28;20190;-72
2023/01/30 11:18:16;;;;;;;4.20;2.50;;;;;;;5.14;99.99;99808.53;4970834;28;20192;-72
2023/01/30 11:20:45;;;;;;;7.33;1.53;;;;;;;5.30;98.66;99798.28;4970995;28;20174;-71
2023/01/30 11:23:43;;;;;;;12.87;3.20;;;;;;;5.37;96.54;99788.72;4971294;28;20289;-72
2023/01/30 11:26:40;;;;;;;16.90;2.70;;;;;;;5.52;94.57;99798.53;4971242;28;20213;-72
2023/01/30 11:29:28;;;;;;;7.60;2.37;;;;;;;5.70;92.91;99783.34;4948804;28;20628;-72
2023/01/30 11:31:55;;;;;;;7.80;2.07;;;;;;;5.92;90.77;99758.34;4970981;28;20478;-72
2023/01/30 11:34:22;;;;;;;10.83;2.67;;;;;;;5.85;88.78;99769.53;4971249;28;20182;-72
2023/01/30 11:36:48;;;;;;;13.07;1.70;;;;;;;5.85;89.26;99785.00;4971100;28;20174;-71
2023/01/30 11:39:17;;;;;;;6.20;1.13;;;;;;;5.76;90.21;99782.16;4971077;28;20257;-72
2023/01/30 11:42:00;;;;;;;2.43;1.00;;;;;;;5.64;89.72;99774.50;4970777;28;20225;-71
2023/01/30 11:44:34;;;;;;;11.80;3.47;;;;;;;5.69;89.95;99779.03;4971697;28;20519;-70
2023/01/30 11:47:21;;;;;;;6.00;1.70;;;;;;;5.60;90.18;99769.94;4971363;28;20170;-71